Time;durP1;ratioP1;P1;durP2;ratioP2;P2;SDS_P1;SDS_P2;PMS_P1;PMS_P2;Temp;Humidity;BMP_temperature;BMP_pressure;BME280_temperature;BME280_humidity;BME280_pressure;Samples;Min_cycle;Max_cycle;Signal;HPM_P1;HPM_P2
2022/08/29 00:00:33;;;;;;;8.63;4.27;;;15.30;99.90;;;;;;5034950;28;20175;-68
2022/08/29 00:02:59;;;;;;;7.53;4.20;;;15.30;99.90;;;;;;5034350;28;20206;-69
2022/08/29 00:05:31;;;;;;;10.40;5.33;;;15.30;99.90;;;;;;5034871;28;20257;-68
2022/08/29 00:07:58;;;;;;;6.83;4.37;;;15.30;99.90;;;;;;5034819;28;20210;-68
2022/08/29 00:10:24;;;;;;;7.40;4.07;;;15.20;99.90;;;;;;5034676;28;20406;-68
2022/08/29 00:12:51;;;;;;;6.90;4.60;;;15.20;99.90;;;;;;5034385;28;20528;-68
2022/08/29 00:15:17;;;;;;;7.03;4.30;;;15.20;99.90;;;;;;5034569;28;20906;-68
2022/08/29 00:17:43;;;;;;;6.63;4.10;;;15.10;99.90;;;;;;5034676;28;20521;-68
2022/08/29 00:20:12;;;;;;;8.73;4.63;;;15.10;99.90;;;;;;5034594;28;20977;-69
2022/08/29 00:22:38;;;;;;;7.00;4.33;;;15.10;99.90;;;;;;5034071;28;20179;-68
2022/08/29 00:25:05;;;;;;;9.13;4.60;;;15.10;99.90;;;;;;5034500;28;20440;-68
2022/08/29 00:27:31;;;;;;;8.20;4.77;;;15.00;99.90;;;;;;5034491;28;20202;-68
2022/08/29 00:29:57;;;;;;;7.93;3.70;;;15.00;99.90;;;;;;5034276;28;20405;-68
2022/08/29 00:32:23;;;;;;;8.10;4.17;;;15.00;99.90;;;;;;5033232;28;20464;-68
2022/08/29 00:34:49;;;;;;;7.43;3.77;;;15.00;99.90;;;;;;5034508;28;20182;-68
2022/08/29 00:37:14;;;;;;;9.03;4.47;;;15.00;99.90;;;;;;5034412;28;20645;-68
2022/08/29 00:39:40;;;;;;;8.93;4.10;;;15.00;99.90;;;;;;5034271;28;20171;-68
2022/08/29 00:42:05;;;;;;;9.37;5.30;;;14.90;99.90;;;;;;5033905;28;20170;-68
2022/08/29 00:44:31;;;;;;;8.47;3.77;;;14.90;99.90;;;;;;5034210;28;20179;-69
2022/08/29 00:47:05;;;;;;;8.07;5.00;;;14.80;99.90;;;;;;5034338;28;20244;-68
2022/08/29 00:49:39;;;;;;;8.53;3.77;;;14.80;99.90;;;;;;5034087;28;20598;-69
2022/08/29 00:52:18;;;;;;;6.90;4.40;;;14.80;99.90;;;;;;5033957;28;20451;-68
2022/08/29 00:54:48;;;;;;;8.77;4.40;;;14.70;99.90;;;;;;5034136;28;20413;-68
2022/08/29 00:57:15;;;;;;;9.93;4.20;;;14.80;99.90;;;;;;5034192;28;20406;-68
2022/08/29 00:59:41;;;;;;;6.80;3.80;;;14.70;99.90;;;;;;5034150;28;20476;-68
2022/08/29 01:02:09;;;;;;;7.53;4.20;;;14.70;99.90;;;;;;5033395;28;20453;-68
2022/08/29 01:04:36;;;;;;;6.97;3.83;;;14.70;99.90;;;;;;5033607;28;20170;-68
2022/08/29 01:07:02;;;;;;;7.03;3.70;;;14.70;99.90;;;;;;5033949;28;20409;-68
2022/08/29 01:09:29;;;;;;;7.53;4.20;;;14.70;99.90;;;;;;5033757;28;20953;-68
2022/08/29 01:14:46;;;;;;;7.27;4.10;;;14.60;99.90;;;;;;5033843;28;20443;-68
2022/08/29 01:17:19;;;;;;;8.83;4.73;;;14.60;99.90;;;;;;5033652;28;20421;-68
2022/08/29 01:19:51;;;;;;;8.67;4.30;;;14.60;99.90;;;;;;5033552;28;20410;-69
2022/08/29 01:22:35;;;;;;;7.83;4.00;;;14.60;99.90;;;;;;5033245;28;20945;-68
2022/08/29 01:25:05;;;;;;;8.63;4.07;;;14.60;99.90;;;;;;5033602;28;20512;-68
2022/08/29 01:27:33;;;;;;;11.53;4.63;;;14.50;99.90;;;;;;5033397;28;20448;-68
2022/08/29 01:29:59;;;;;;;7.47;4.40;;;14.40;99.90;;;;;;5033124;28;20401;-68
2022/08/29 01:32:25;;;;;;;6.80;4.10;;;14.40;99.90;;;;;;5032250;28;20432;-68
2022/08/29 01:34:52;;;;;;;8.50;4.00;;;14.40;99.90;;;;;;5032567;28;20678;-68
2022/08/29 01:37:18;;;;;;;8.07;4.27;;;14.40;99.90;;;;;;5033283;28;20414;-68
2022/08/29 01:39:44;;;;;;;9.60;4.47;;;14.40;99.90;;;;;;5033269;28;20409;-70
2022/08/29 01:42:19;;;;;;;12.67;4.27;;;14.40;99.90;;;;;;5032598;28;20497;-68
2022/08/29 01:44:55;;;;;;;8.87;4.70;;;14.40;99.90;;;;;;5033198;28;20401;-68
2022/08/29 01:47:24;;;;;;;10.40;4.83;;;14.40;99.90;;;;;;5033033;28;20415;-68
2022/08/29 01:49:50;;;;;;;12.43;4.53;;;14.40;99.90;;;;;;5042973;28;20565;-68
2022/08/29 01:52:15;;;;;;;6.60;4.17;;;14.30;99.90;;;;;;5052388;28;21127;-68
2022/08/29 01:54:43;;;;;;;6.43;3.30;;;14.30;99.90;;;;;;5052827;28;20409;-68
2022/08/29 01:57:11;;;;;;;6.37;3.50;;;14.20;99.90;;;;;;5039964;28;20228;-68
2022/08/29 01:59:38;;;;;;;6.87;4.33;;;14.30;99.90;;;;;;5032836;28;20454;-68
2022/08/29 02:02:06;;;;;;;5.60;2.80;;;14.30;99.90;;;;;;5032280;28;20950;-68
2022/08/29 02:04:32;;;;;;;7.20;3.80;;;14.30;99.90;;;;;;5032652;28;20406;-68
2022/08/29 02:06:57;;;;;;;4.77;2.93;;;14.30;99.90;;;;;;5032728;28;21019;-68
2022/08/29 02:09:24;;;;;;;6.47;3.30;;;14.30;99.90;;;;;;5032623;28;20202;-68
2022/08/29 02:11:51;;;;;;;7.87;3.43;;;14.20;99.90;;;;;;5032200;28;20189;-68
2022/08/29 02:14:17;;;;;;;5.70;3.00;;;14.20;99.90;;;;;;5032783;28;20417;-68
2022/08/29 02:16:43;;;;;;;7.30;4.20;;;14.10;99.90;;;;;;5032682;28;20420;-68
2022/08/29 02:19:08;;;;;;;7.03;3.90;;;14.00;99.90;;;;;;5032481;28;20405;-68
2022/08/29 02:21:34;;;;;;;6.17;3.87;;;14.00;99.90;;;;;;5032357;28;20193;-68
2022/08/29 02:24:02;;;;;;;10.83;4.20;;;14.00;99.90;;;;;;5032520;28;20178;-68
2022/08/29 02:26:28;;;;;;;8.80;3.87;;;13.90;99.90;;;;;;5032761;28;20561;-68
2022/08/29 02:28:56;;;;;;;6.13;3.20;;;13.90;99.90;;;;;;5032632;28;20921;-68
2022/08/29 02:31:23;;;;;;;6.80;3.97;;;13.90;99.90;;;;;;5032158;28;20580;-68
2022/08/29 02:33:50;;;;;;;8.40;3.70;;;13.90;99.90;;;;;;5031722;28;20773;-68
2022/08/29 02:36:16;;;;;;;9.73;4.90;;;13.80;99.90;;;;;;5032298;28;20830;-68
2022/08/29 02:38:42;;;;;;;7.10;4.07;;;13.80;99.90;;;;;;5032262;28;20463;-68
2022/08/29 02:41:07;;;;;;;15.50;3.90;;;13.80;99.90;;;;;;5031866;28;20179;-68
2022/08/29 02:43:34;;;;;;;5.70;3.50;;;13.80;99.90;;;;;;5032264;28;20178;-68
2022/08/29 02:46:00;;;;;;;6.37;3.67;;;13.80;99.90;;;;;;5032078;28;20262;-68
2022/08/29 02:48:26;;;;;;;9.20;4.23;;;13.90;99.90;;;;;;5031886;28;20524;-68
2022/08/29 02:50:54;;;;;;;7.73;4.10;;;13.80;99.90;;;;;;5050307;28;20170;-68
2022/08/29 02:53:23;;;;;;;5.57;3.20;;;13.80;99.90;;;;;;5051714;28;20404;-68
2022/08/29 02:55:50;;;;;;;8.07;4.30;;;13.80;99.90;;;;;;5050202;28;20409;-68
2022/08/29 02:58:17;;;;;;;6.60;3.80;;;13.80;99.90;;;;;;5031963;28;20409;-67
2022/08/29 03:00:43;;;;;;;8.27;3.97;;;13.70;99.90;;;;;;5031816;28;20405;-68
2022/08/29 03:03:09;;;;;;;6.47;3.43;;;13.70;99.90;;;;;;5031149;28;20417;-68
2022/08/29 03:05:36;;;;;;;7.77;3.80;;;13.70;99.90;;;;;;5032020;28;20417;-68
2022/08/29 03:08:04;;;;;;;8.47;4.07;;;13.70;99.90;;;;;;5031945;28;20453;-68
2022/08/29 03:10:30;;;;;;;6.93;3.97;;;13.70;99.90;;;;;;5031854;28;20397;-68
2022/08/29 03:12:56;;;;;;;6.90;3.20;;;13.60;99.90;;;;;;5031336;28;20795;-68
2022/08/29 03:15:22;;;;;;;11.33;4.73;;;13.60;99.90;;;;;;5031904;28;20257;-69
2022/08/29 03:17:48;;;;;;;7.57;4.13;;;13.60;99.90;;;;;;5031783;28;20619;-68
2022/08/29 03:20:16;;;;;;;7.33;4.17;;;13.60;99.90;;;;;;5031746;28;20412;-68
2022/08/29 03:22:43;;;;;;;9.53;3.60;;;13.60;99.90;;;;;;5031243;28;20986;-68
2022/08/29 03:25:11;;;;;;;17.63;4.50;;;13.60;99.90;;;;;;5031836;28;20431;-68
2022/08/29 03:27:37;;;;;;;17.70;4.03;;;13.60;99.90;;;;;;5031793;28;20482;-68
2022/08/29 03:30:05;;;;;;;8.23;4.90;;;13.60;99.90;;;;;;5031765;28;20405;-69
2022/08/29 03:32:30;;;;;;;8.87;4.40;;;13.60;99.90;;;;;;5030180;28;20464;-68
2022/08/29 03:34:56;;;;;;;7.63;4.53;;;13.50;99.90;;;;;;5031688;28;20410;-68
2022/08/29 03:37:22;;;;;;;10.80;4.37;;;13.50;99.90;;;;;;5031847;28;20232;-68
2022/08/29 03:39:47;;;;;;;5.80;3.67;;;13.40;99.90;;;;;;5031721;28;20883;-68
2022/08/29 03:42:13;;;;;;;6.77;4.03;;;13.40;99.90;;;;;;5031189;28;20265;-68
2022/08/29 03:44:41;;;;;;;7.37;3.83;;;13.30;99.90;;;;;;5031798;28;20254;-68
2022/08/29 03:47:08;;;;;;;5.87;3.07;;;13.30;99.90;;;;;;5031918;28;20166;-68
2022/08/29 03:49:34;;;;;;;6.30;3.97;;;13.20;99.90;;;;;;5039486;28;20464;-68
2022/08/29 03:52:01;;;;;;;9.40;4.50;;;13.20;99.90;;;;;;5051297;28;20405;-68
2022/08/29 03:54:27;;;;;;;5.67;3.43;;;13.20;99.90;;;;;;5051916;28;20400;-68
2022/08/29 03:56:54;;;;;;;5.10;3.27;;;13.20;99.90;;;;;;5040896;28;20416;-68
2022/08/29 03:59:20;;;;;;;8.93;4.20;;;13.30;99.90;;;;;;5034899;28;20413;-68
2022/08/29 04:01:48;;;;;;;6.53;3.40;;;13.30;99.90;;;;;;5034749;28;20758;-68
2022/08/29 04:07:05;;;;;;;7.20;4.13;;;13.30;99.90;;;;;;5035155;28;20493;-68
2022/08/29 04:09:31;;;;;;;6.67;4.10;;;13.30;99.90;;;;;;5034925;28;20953;-68
2022/08/29 04:11:58;;;;;;;6.80;4.20;;;13.30;99.90;;;;;;5034413;28;20413;-68
2022/08/29 04:14:24;;;;;;;6.53;3.73;;;13.20;99.90;;;;;;5035074;28;20409;-68
2022/08/29 04:16:50;;;;;;;4.70;2.93;;;13.20;99.90;;;;;;5034995;28;20436;-68
2022/08/29 04:19:20;;;;;;;8.90;4.33;;;13.20;99.90;;;;;;5034911;28;20413;-68
2022/08/29 04:21:47;;;;;;;13.60;4.93;;;13.20;99.90;;;;;;5034071;28;20478;-68
2022/08/29 04:24:13;;;;;;;6.67;4.17;;;13.20;99.90;;;;;;5034699;28;20894;-68
2022/08/29 04:26:39;;;;;;;6.37;3.37;;;13.20;99.90;;;;;;5034757;28;20881;-68
2022/08/29 04:29:06;;;;;;;5.73;3.83;;;13.10;99.90;;;;;;5034504;28;20952;-68
2022/08/29 04:31:33;;;;;;;7.70;4.53;;;13.10;99.90;;;;;;5034087;28;20539;-68
2022/08/29 04:33:59;;;;;;;11.90;5.33;;;13.10;99.90;;;;;;5033579;28;20413;-68
2022/08/29 04:36:24;;;;;;;6.00;3.90;;;13.00;99.90;;;;;;5034349;28;20412;-68
2022/08/29 04:38:50;;;;;;;7.33;3.43;;;13.10;99.90;;;;;;5034408;28;20170;-68
2022/08/29 04:41:16;;;;;;;7.43;3.70;;;13.10;99.90;;;;;;5033838;28;20174;-68
2022/08/29 04:43:44;;;;;;;7.97;5.13;;;13.10;99.90;;;;;;5034233;28;20214;-67
2022/08/29 04:46:10;;;;;;;12.27;4.17;;;13.00;99.90;;;;;;5034266;28;20198;-68
2022/08/29 04:48:36;;;;;;;8.93;4.90;;;13.00;99.90;;;;;;5034113;28;20487;-68
2022/08/29 04:51:01;;;;;;;8.10;4.73;;;13.00;99.90;;;;;;5033531;28;20320;-68
2022/08/29 04:53:28;;;;;;;6.33;4.10;;;13.00;99.90;;;;;;5033886;28;20213;-68
2022/08/29 04:56:02;;;;;;;11.13;5.90;;;13.00;99.90;;;;;;5033988;28;20177;-68
2022/08/29 04:58:29;;;;;;;9.23;4.63;;;13.00;99.90;;;;;;5033934;28;20417;-68
2022/08/29 05:00:54;;;;;;;9.17;4.97;;;13.00;99.90;;;;;;5033771;28;20447;-68
2022/08/29 05:03:21;;;;;;;10.57;4.07;;;13.00;99.90;;;;;;5033554;28;20409;-68
2022/08/29 05:06:02;;;;;;;8.90;5.03;;;13.00;99.90;;;;;;5033706;28;20187;-69
2022/08/29 05:08:30;;;;;;;7.93;3.90;;;13.10;99.90;;;;;;5033690;28;20486;-68
2022/08/29 05:10:56;;;;;;;9.90;4.20;;;13.10;99.90;;;;;;5032284;28;20410;-68
2022/08/29 05:13:22;;;;;;;8.60;4.53;;;13.10;99.90;;;;;;5033251;28;20952;-68
2022/08/29 05:15:48;;;;;;;12.70;4.60;;;13.10;99.90;;;;;;5033759;28;20178;-67
2022/08/29 05:18:16;;;;;;;8.30;4.90;;;13.20;99.90;;;;;;5033693;28;20524;-68
2022/08/29 05:20:43;;;;;;;10.93;4.20;;;13.20;99.90;;;;;;5033801;28;20965;-68
2022/08/29 05:23:09;;;;;;;13.20;4.43;;;13.30;99.90;;;;;;5033112;28;20777;-68
2022/08/29 05:25:35;;;;;;;13.80;5.30;;;13.30;99.90;;;;;;5033780;28;20404;-67
2022/08/29 05:28:01;;;;;;;10.53;4.90;;;13.40;99.90;;;;;;5033360;28;20472;-68
2022/08/29 05:30:27;;;;;;;10.17;4.53;;;13.40;99.90;;;;;;5033689;28;20412;-67
2022/08/29 05:32:55;;;;;;;8.50;4.83;;;13.40;99.90;;;;;;5032073;28;20488;-67
2022/08/29 05:35:21;;;;;;;8.70;4.90;;;13.50;99.90;;;;;;5033455;28;20293;-68
2022/08/29 05:37:47;;;;;;;11.67;5.13;;;13.50;99.90;;;;;;5033145;28;20491;-67
2022/08/29 05:40:12;;;;;;;9.03;4.90;;;13.50;99.90;;;;;;5033002;28;20553;-67
2022/08/29 05:42:39;;;;;;;10.23;5.43;;;13.50;99.90;;;;;;5032651;28;20274;-68
2022/08/29 05:45:05;;;;;;;8.00;4.57;;;13.50;99.90;;;;;;5033232;28;20206;-68
2022/08/29 05:47:31;;;;;;;12.13;5.30;;;13.60;99.90;;;;;;5033067;28;20417;-68
2022/08/29 05:49:58;;;;;;;13.30;5.07;;;13.70;99.90;;;;;;5032992;28;20463;-67
2022/08/29 05:52:24;;;;;;;7.37;4.40;;;13.80;99.90;;;;;;5032371;28;20209;-67
2022/08/29 05:54:50;;;;;;;10.23;4.77;;;13.80;99.90;;;;;;5032786;28;20413;-67
2022/08/29 05:57:19;;;;;;;10.80;5.40;;;13.90;99.90;;;;;;5032825;28;20461;-67
2022/08/29 05:59:45;;;;;;;8.27;5.30;;;14.00;99.90;;;;;;5032817;28;20182;-67
2022/08/29 06:02:13;;;;;;;7.80;4.90;;;14.10;99.90;;;;;;5031977;28;20484;-68
2022/08/29 06:04:39;;;;;;;12.57;5.53;;;14.20;99.90;;;;;;5032388;28;20441;-67
2022/08/29 06:07:06;;;;;;;7.50;4.60;;;14.20;99.90;;;;;;5032530;28;20834;-67
2022/08/29 06:09:33;;;;;;;10.57;5.80;;;14.30;99.90;;;;;;5032398;28;20492;-68
2022/08/29 06:11:58;;;;;;;13.73;6.53;;;14.40;99.90;;;;;;5031896;28;20906;-67
2022/08/29 06:14:24;;;;;;;11.00;5.00;;;14.50;99.90;;;;;;5032409;28;20497;-67
2022/08/29 06:16:51;;;;;;;22.87;5.60;;;14.50;99.90;;;;;;5032460;28;20624;-67
2022/08/29 06:19:17;;;;;;;12.33;5.07;;;14.50;99.90;;;;;;5032474;28;20416;-67
2022/08/29 06:21:42;;;;;;;9.23;4.80;;;14.60;99.90;;;;;;5031588;28;20409;-67
2022/08/29 06:24:08;;;;;;;8.67;5.17;;;14.70;99.90;;;;;;5032208;28;20217;-67
2022/08/29 06:26:34;;;;;;;12.13;6.97;;;14.80;99.90;;;;;;5032324;28;20225;-67
2022/08/29 06:29:04;;;;;;;10.03;4.80;;;14.90;99.90;;;;;;5032065;28;20686;-67
2022/08/29 06:31:30;;;;;;;10.93;6.13;;;15.00;99.90;;;;;;5031667;28;20401;-67
2022/08/29 06:33:58;;;;;;;10.73;6.13;;;15.10;99.90;;;;;;5030950;28;20421;-68
2022/08/29 06:36:25;;;;;;;10.13;6.00;;;15.20;99.90;;;;;;5032356;28;20586;-67
2022/08/29 06:38:55;;;;;;;10.70;5.70;;;15.30;99.90;;;;;;5031998;28;20420;-67
2022/08/29 06:41:21;;;;;;;16.40;6.07;;;15.50;99.90;;;;;;5031951;28;20452;-67
2022/08/29 06:43:46;;;;;;;14.20;6.87;;;15.70;99.90;;;;;;5032112;28;20417;-67
2022/08/29 06:46:40;;;;;;;9.60;5.80;;;15.90;99.90;;;;;;5032210;28;20183;-68
2022/08/29 06:49:09;;;;;;;15.60;6.87;;;16.10;99.90;;;;;;5030678;28;20539;-68
2022/08/29 06:51:37;;;;;;;10.37;5.53;;;16.20;99.90;;;;;;5031749;28;20405;-68
2022/08/29 06:54:05;;;;;;;15.40;6.80;;;16.40;99.90;;;;;;5032281;28;20412;-68
2022/08/29 06:56:31;;;;;;;11.47;5.70;;;16.60;99.90;;;;;;5032273;28;20405;-69
2022/08/29 06:58:57;;;;;;;15.10;8.10;;;16.70;99.90;;;;;;5031978;28;20405;-68
2022/08/29 07:01:23;;;;;;;13.00;6.53;;;17.00;99.90;;;;;;5031712;28;20188;-68
2022/08/29 07:03:52;;;;;;;11.60;6.60;;;17.20;99.90;;;;;;5032045;28;20178;-68
2022/08/29 07:06:18;;;;;;;16.90;7.10;;;17.30;99.90;;;;;;5032256;28;20413;-68
2022/08/29 07:08:44;;;;;;;13.97;6.83;;;17.50;99.90;;;;;;5031929;28;20459;-68
2022/08/29 07:11:10;;;;;;;12.07;5.80;;;17.90;99.90;;;;;;5031683;28;20409;-68
2022/08/29 07:13:36;;;;;;;14.57;7.73;;;18.10;99.90;;;;;;5032247;28;20421;-68
2022/08/29 07:16:02;;;;;;;15.80;6.17;;;18.60;99.90;;;;;;5032112;28;20972;-68
2022/08/29 07:18:27;;;;;;;12.53;6.70;;;18.80;99.90;;;;;;5032276;28;20197;-68
2022/08/29 07:20:53;;;;;;;10.70;6.00;;;19.20;99.90;;;;;;5032324;28;20969;-68
2022/08/29 07:23:20;;;;;;;12.07;5.97;;;19.60;99.90;;;;;;5032334;28;20171;-68
2022/08/29 07:25:45;;;;;;;9.73;6.03;;;19.80;99.90;;;;;;5032418;28;20179;-68
2022/08/29 07:28:11;;;;;;;13.47;6.23;;;20.40;99.90;;;;;;5032508;28;20969;-68
2022/08/29 07:30:37;;;;;;;12.53;5.93;;;21.50;99.90;;;;;;5031964;28;20166;-69
2022/08/29 07:33:03;;;;;;;9.97;5.07;;;22.60;99.90;;;;;;5031659;28;20200;-69
2022/08/29 07:35:29;;;;;;;10.13;4.93;;;23.60;99.30;;;;;;5036012;28;20196;-69
2022/08/29 07:37:56;;;;;;;12.33;5.40;;;24.40;97.40;;;;;;5035506;28;20927;-69
2022/08/29 07:40:22;;;;;;;9.63;5.00;;;24.90;95.50;;;;;;5035342;28;20181;-69
2022/08/29 07:42:48;;;;;;;9.20;4.70;;;25.50;94.70;;;;;;5034989;28;20409;-69
2022/08/29 07:45:13;;;;;;;9.17;5.00;;;25.90;93.50;;;;;;5035242;28;20193;-70
2022/08/29 07:47:39;;;;;;;10.27;5.60;;;26.00;92.60;;;;;;5035574;28;20181;-70
2022/08/29 07:50:08;;;;;;;10.00;5.57;;;25.50;93.10;;;;;;5035134;28;20221;-69
2022/08/29 07:52:34;;;;;;;12.47;6.13;;;26.00;92.80;;;;;;5034803;28;20174;-69
2022/08/29 07:55:00;;;;;;;11.27;4.97;;;25.90;92.40;;;;;;5034948;28;20748;-69
2022/08/29 07:57:26;;;;;;;9.77;4.67;;;26.00;91.80;;;;;;5035203;28;20795;-69
2022/08/29 07:59:52;;;;;;;10.20;5.40;;;26.00;91.50;;;;;;5035158;28;20907;-70
2022/08/29 08:02:18;;;;;;;8.00;4.67;;;25.70;91.70;;;;;;5034556;28;20554;-70
2022/08/29 08:04:44;;;;;;;10.90;4.97;;;26.10;91.30;;;;;;5034954;28;20185;-69
2022/08/29 08:07:10;;;;;;;14.70;4.80;;;25.90;91.20;;;;;;5034833;28;20689;-69
2022/08/29 08:09:37;;;;;;;8.00;4.20;;;25.80;91.30;;;;;;5034670;28;20483;-69
2022/08/29 08:12:04;;;;;;;6.60;4.13;;;25.60;91.20;;;;;;5034325;28;20563;-69
2022/08/29 08:14:31;;;;;;;7.40;4.20;;;25.70;91.90;;;;;;5034905;28;20719;-69
2022/08/29 08:16:56;;;;;;;14.45;5.00;;;26.30;90.70;;;;;;5034779;28;20627;-69
2022/08/29 08:19:22;;;;;;;12.63;4.80;;;26.20;90.80;;;;;;5034918;28;20185;-69
2022/08/29 08:21:48;;;;;;;6.15;3.35;;;26.60;90.60;;;;;;5034304;28;20178;-70
2022/08/29 08:24:13;;;;;;;7.18;3.42;;;26.90;90.30;;;;;;5034699;28;20182;-70
2022/08/29 08:26:39;;;;;;;8.05;4.25;;;27.90;85.60;;;;;;5034456;28;20176;-70
2022/08/29 08:29:04;;;;;;;7.07;4.82;;;27.70;84.90;;;;;;5034715;28;20202;-70
2022/08/29 08:31:30;;;;;;;6.28;3.22;;;27.60;86.00;;;;;;5034335;28;20190;-71
2022/08/29 08:33:56;;;;;;;12.95;4.30;;;27.90;83.70;;;;;;5033815;28;20178;-70
2022/08/29 08:36:28;;;;;;;5.38;3.58;;;28.00;84.70;;;;;;5034648;28;20182;-70
2022/08/29 08:38:54;;;;;;;6.05;3.42;;;28.50;82.50;;;;;;5034433;28;20211;-70
2022/08/29 08:41:26;;;;;;;6.63;3.35;;;28.60;80.80;;;;;;5033544;28;20178;-70
2022/08/29 08:43:56;;;;;;;5.68;3.30;;;28.70;79.70;;;;;;5034052;28;20228;-70
2022/08/29 08:46:35;;;;;;;7.88;3.38;;;28.30;81.00;;;;;;5034165;28;20174;-69
2022/08/29 08:49:04;;;;;;;10.02;3.53;;;28.00;81.80;;;;;;5034156;28;20197;-70
2022/08/29 08:51:34;;;;;;;8.93;3.45;;;28.40;80.50;;;;;;5033736;28;20177;-69
2022/08/29 08:54:06;;;;;;;4.53;2.85;;;28.50;80.00;;;;;;5034150;28;20162;-69
2022/08/29 08:56:40;;;;;;;4.90;2.50;;;28.20;81.60;;;;;;5034007;28;20629;-68
2022/08/29 08:59:31;;;;;;;4.88;3.20;;;28.00;82.20;;;;;;5034078;28;20548;-68
2022/08/29 09:02:10;;;;;;;4.18;2.55;;;28.20;80.10;;;;;;5033366;28;20300;-68
2022/08/29 09:04:53;;;;;;;5.68;2.75;;;27.30;83.90;;;;;;5033963;28;20174;-69
2022/08/29 09:07:58;;;;;;;3.72;2.05;;;27.80;81.40;;;;;;5032672;28;20184;-68
2022/08/29 09:10:36;;;;;;;7.47;2.78;;;27.40;83.70;;;;;;5034020;28;20269;-68
2022/08/29 09:13:07;;;;;;;4.28;2.38;;;27.40;81.90;;;;;;5033203;28;20401;-68
2022/08/29 09:15:42;;;;;;;3.95;3.03;;;27.60;78.90;;;;;;5033679;28;20180;-67
2022/08/29 09:18:14;;;;;;;5.07;2.58;;;28.10;79.30;;;;;;5033631;28;20169;-69
2022/08/29 09:20:40;;;;;;;5.32;3.03;;;27.70;81.30;;;;;;5033738;28;21027;-69
2022/08/29 09:23:18;;;;;;;12.38;3.17;;;27.80;81.00;;;;;;5032981;28;20203;-69
2022/08/29 09:25:44;;;;;;;6.05;2.90;;;27.10;82.70;;;;;;5033630;28;20174;-68
2022/08/29 09:28:10;;;;;;;5.95;2.38;;;27.10;82.10;;;;;;5033153;28;20709;-68
2022/08/29 09:30:38;;;;;;;7.10;2.70;;;27.50;79.40;;;;;;5033526;28;20269;-69
2022/08/29 09:33:21;;;;;;;5.47;2.70;;;27.40;79.10;;;;;;5031915;28;20501;-69
2022/08/29 09:35:50;;;;;;;5.75;2.95;;;27.40;80.40;;;;;;5033170;28;20257;-69
2022/08/29 09:38:16;;;;;;;7.47;3.45;;;27.30;80.60;;;;;;5033290;28;20669;-69
2022/08/29 09:40:50;;;;;;;7.97;3.08;;;27.60;79.30;;;;;;5033267;28;20264;-69
2022/08/29 09:43:22;;;;;;;9.63;3.38;;;27.30;80.40;;;;;;5032821;28;20276;-69
2022/08/29 09:46:10;;;;;;;7.35;3.33;;;27.50;79.90;;;;;;5033163;28;20202;-68
2022/08/29 09:48:43;;;;;;;7.20;2.33;;;26.70;81.40;;;;;;5033090;28;20683;-68
2022/08/29 09:51:10;;;;;;;8.25;2.97;;;27.00;81.10;;;;;;5032789;28;20196;-68
2022/08/29 09:53:36;;;;;;;6.85;2.65;;;27.20;80.00;;;;;;5033267;28;20170;-68
2022/08/29 09:56:07;;;;;;;7.53;3.25;;;26.80;81.70;;;;;;5032644;28;20219;-68
2022/08/29 09:58:40;;;;;;;5.53;2.90;;;26.60;82.70;;;;;;5033118;28;20185;-68
2022/08/29 10:01:16;;;;;;;5.90;3.10;;;26.30;81.40;;;;;;5032570;28;20249;-68
2022/08/29 10:03:53;;;;;;;4.63;2.60;;;26.10;82.10;;;;;;5033174;28;20173;-68
2022/08/29 10:06:25;;;;;;;14.40;3.20;;;26.20;82.80;;;;;;5033002;28;20174;-67
2022/08/29 10:09:22;;;;;;;7.77;3.00;;;26.00;82.70;;;;;;5032603;28;20240;-68
2022/08/29 10:11:59;;;;;;;3.37;1.70;;;26.00;81.30;;;;;;5032179;28;20515;-68
2022/08/29 10:14:43;;;;;;;6.80;2.20;;;25.90;82.30;;;;;;5032634;28;20499;-68
2022/08/29 10:20:08;;;;;;;6.70;2.47;;;25.70;82.60;;;;;;5032535;28;20404;-68
2022/08/29 10:22:50;;;;;;;11.73;3.60;;;25.70;82.30;;;;;;5031905;28;20876;-68
2022/08/29 10:25:36;;;;;;;6.83;3.00;;;25.80;83.00;;;;;;5032367;28;20862;-69
2022/08/29 10:28:02;;;;;;;9.53;3.10;;;25.80;82.00;;;;;;5031975;28;20474;-69
2022/08/29 10:30:48;;;;;;;5.10;2.20;;;25.80;80.90;;;;;;5032275;28;20404;-68
2022/08/29 10:33:53;;;;;;;7.50;3.30;;;25.90;80.60;;;;;;5030906;28;20535;-70
2022/08/29 10:36:30;;;;;;;3.63;2.33;;;25.90;81.40;;;;;;5032074;28;20400;-69
2022/08/29 10:39:10;;;;;;;6.33;3.00;;;26.00;80.20;;;;;;5032335;28;20915;-70
2022/08/29 10:41:49;;;;;;;5.77;2.83;;;25.90;80.40;;;;;;5031899;28;20419;-69
2022/08/29 10:44:39;;;;;;;5.40;2.40;;;25.80;79.70;;;;;;5031950;28;20499;-69
2022/08/29 10:47:20;;;;;;;9.77;3.03;;;25.90;79.80;;;;;;5031903;28;20984;-69
2022/08/29 10:50:07;;;;;;;11.20;1.90;;;25.90;79.40;;;;;;5031717;28;20542;-68
2022/08/29 10:52:58;;;;;;;6.00;3.00;;;25.80;79.20;;;;;;5031140;28;20912;-69
2022/08/29 10:55:47;;;;;;;6.43;2.83;;;25.80;79.10;;;;;;5031847;28;20405;-69
2022/08/29 10:58:34;;;;;;;4.10;2.03;;;25.90;78.20;;;;;;5010727;28;20437;-69
2022/08/29 11:01:19;;;;;;;4.53;2.40;;;26.00;78.60;;;;;;5011672;28;20944;-68
2022/08/29 11:03:51;;;;;;;5.10;2.70;;;26.00;79.00;;;;;;5011950;28;20496;-68
2022/08/29 11:06:22;;;;;;;4.83;2.63;;;25.90;78.90;;;;;;5012039;28;20416;-69
2022/08/29 11:09:04;;;;;;;3.60;1.73;;;25.70;79.90;;;;;;5015878;28;20983;-69
2022/08/29 11:11:32;;;;;;;5.57;2.07;;;25.50;80.30;;;;;;5015741;28;20421;-69
2022/08/29 11:14:06;;;;;;;7.23;3.23;;;25.50;80.70;;;;;;5015809;28;20888;-69
2022/08/29 11:16:37;;;;;;;5.70;2.70;;;25.90;78.90;;;;;;5016091;28;20928;-68
2022/08/29 11:19:17;;;;;;;5.90;2.20;;;25.90;79.20;;;;;;5016145;28;20428;-69
2022/08/29 11:21:50;;;;;;;4.70;2.30;;;26.00;78.30;;;;;;5015605;28;20489;-68
2022/08/29 11:24:19;;;;;;;5.30;2.70;;;25.90;78.70;;;;;;5016255;28;20420;-69
2022/08/29 11:26:57;;;;;;;8.23;2.90;;;26.00;79.20;;;;;;5016141;28;20421;-69
2022/08/29 11:30:09;;;;;;;7.10;1.87;;;26.50;77.10;;;;;;5015936;28;20457;-69
2022/08/29 11:32:52;;;;;;;6.03;2.53;;;26.60;77.00;;;;;;4973375;28;20455;-69
2022/08/29 11:35:27;;;;;;;6.40;2.40;;;26.50;74.40;;;;;;4974812;28;20495;-69
2022/08/29 11:38:25;;;;;;;4.13;2.50;;;26.40;75.20;;;;;;5003809;28;20424;-70
2022/08/29 11:41:01;;;;;;;3.77;2.10;;;26.70;75.60;;;;;;5015807;28;20417;-69
2022/08/29 11:43:34;;;;;;;10.77;2.30;;;26.60;73.40;;;;;;5015836;28;20825;-69
2022/08/29 11:46:05;;;;;;;8.07;1.80;;;26.60;72.20;;;;;;5015673;28;20916;-69
2022/08/29 11:48:31;;;;;;;4.63;2.27;;;26.90;72.60;;;;;;5015492;28;20210;-70
2022/08/29 11:50:58;;;;;;;3.10;2.00;;;26.60;74.20;;;;;;5052578;28;20173;-69
2022/08/29 11:53:36;;;;;;;4.43;2.17;;;26.60;75.20;;;;;;5054962;28;20169;-69
2022/08/29 11:56:14;;;;;;;4.60;2.30;;;26.70;74.20;;;;;;5051721;28;20478;-69
2022/08/29 11:58:47;;;;;;;3.87;2.10;;;26.80;75.10;;;;;;5035553;28;20174;-70
2022/08/29 12:01:33;;;;;;;5.17;2.20;;;26.60;72.50;;;;;;5034513;28;20539;-70
2022/08/29 12:04:07;;;;;;;5.03;2.63;;;26.70;74.10;;;;;;5035040;28;20178;-69
2022/08/29 12:06:56;;;;;;;5.10;2.97;;;26.20;73.60;;;;;;5035131;28;20273;-69
2022/08/29 12:09:45;;;;;;;3.80;2.30;;;26.00;75.00;;;;;;5034840;28;20220;-70
2022/08/29 12:12:17;;;;;;;4.63;2.17;;;26.30;74.30;;;;;;5034114;28;20524;-70
2022/08/29 12:14:49;;;;;;;4.13;2.33;;;26.80;72.80;;;;;;5034947;28;20405;-69
2022/08/29 12:17:23;;;;;;;3.90;2.00;;;27.00;71.70;;;;;;5034690;28;20177;-69
2022/08/29 12:19:55;;;;;;;11.47;1.90;;;26.90;72.00;;;;;;5034209;28;20931;-70
2022/08/29 12:22:42;;;;;;;7.07;2.87;;;27.40;68.20;;;;;;5034192;28;20181;-71
2022/08/29 12:25:28;;;;;;;9.87;2.73;;;27.10;70.30;;;;;;5034722;28;20170;-68
2022/08/29 12:28:25;;;;;;;5.30;2.50;;;27.20;71.80;;;;;;5034475;28;20205;-70
2022/08/29 12:30:57;;;;;;;4.70;2.47;;;27.30;73.10;;;;;;5034589;28;20770;-68
2022/08/29 12:33:41;;;;;;;4.90;2.50;;;27.60;72.00;;;;;;5033334;28;20272;-68
2022/08/29 12:36:15;;;;;;;5.10;2.00;;;27.70;72.30;;;;;;5034595;28;20261;-69
2022/08/29 12:39:01;;;;;;;3.60;2.07;;;27.80;69.40;;;;;;5034512;28;20180;-69
2022/08/29 12:41:48;;;;;;;4.05;2.22;;;28.00;71.20;;;;;;5033973;28;20181;-69
2022/08/29 12:44:17;;;;;;;8.80;3.27;;;27.60;68.80;;;;;;5034292;28;20223;-69
2022/08/29 12:46:49;;;;;;;3.87;2.20;;;27.30;70.30;;;;;;5034180;28;20616;-69
2022/08/29 12:49:27;;;;;;;4.53;2.37;;;27.30;69.80;;;;;;5039205;28;20193;-69
2022/08/29 12:51:54;;;;;;;5.00;2.90;;;27.40;70.40;;;;;;5053628;28;20204;-70
2022/08/29 12:54:38;;;;;;;4.53;2.47;;;27.70;71.60;;;;;;5053911;28;20238;-69
2022/08/29 12:57:26;;;;;;;6.27;3.30;;;27.90;68.70;;;;;;5042314;28;20256;-69
2022/08/29 12:59:53;;;;;;;3.90;2.47;;;27.50;71.30;;;;;;5034370;28;20224;-69
2022/08/29 13:02:27;;;;;;;5.63;2.07;;;27.60;70.90;;;;;;5033490;28;20198;-69
2022/08/29 13:04:54;;;;;;;8.13;2.20;;;27.70;71.80;;;;;;5034283;28;20188;-69
2022/08/29 13:07:19;;;;;;;4.83;1.90;;;27.80;71.10;;;;;;5034190;28;20244;-69
2022/08/29 13:09:52;;;;;;;4.40;2.27;;;27.90;70.50;;;;;;5033820;28;20665;-69